Terminal Aerodrome Forecast
Issued by NWS

Home | Current Version | Previous Version | Text Only | Print | Product List | Glossary On
Versions: 1 2 3 4 5 6 7 8 9 10 11 12 13 14 15 16 17 18 19 20 21 22
000
FTUS44 KLZK 191300 AAA
TAFHOT
TAF AMD
KHOT 191308Z 1913/2012 28005KT P6SM -SHRA SCT080 OVC090
     FM191500 24005KT P6SM BKN050
     FM191900 20007KT P6SM VCTS SCT020CB BKN250
     FM200100 27006KT 5SM TSRA BR BKN025CB OVC070
     FM200700 30010G25KT P6SM BKN025 OVC080=

USA.gov is the U.S. government's official web portal to all federal, state and local government web resources and services.